createdAt,value
2018-12-20T00:01:23.559Z,18.71
2018-12-20T00:03:51.164Z,18.70
2018-12-20T00:06:18.825Z,18.71
2018-12-20T00:08:46.329Z,18.71
2018-12-20T00:11:15.072Z,18.71
2018-12-20T00:13:42.692Z,18.71
2018-12-20T00:16:10.297Z,18.71
2018-12-20T00:18:37.918Z,18.70
2018-12-20T00:21:05.517Z,18.46
2018-12-20T00:23:33.064Z,18.70
2018-12-20T00:26:00.553Z,18.62
2018-12-20T00:28:28.015Z,18.68
2018-12-20T00:30:55.456Z,18.68
2018-12-20T00:33:23.117Z,18.68
2018-12-20T00:35:50.696Z,18.69
2018-12-20T00:38:18.287Z,18.69
2018-12-20T00:40:45.849Z,18.69
2018-12-20T00:43:13.412Z,18.69
2018-12-20T00:45:41.333Z,18.70
2018-12-20T00:48:08.882Z,18.69
2018-12-20T00:50:36.444Z,18.69
2018-12-20T00:53:04.503Z,18.69
2018-12-20T00:55:32.192Z,18.68
2018-12-20T00:57:59.778Z,18.70
2018-12-20T01:00:27.389Z,18.68
2018-12-20T01:02:55.398Z,18.67
2018-12-20T01:05:23.251Z,18.68
2018-12-20T01:07:50.860Z,18.68
2018-12-20T01:10:18.538Z,18.66
2018-12-20T01:12:46.078Z,18.68
2018-12-20T01:15:13.596Z,18.66
2018-12-20T01:17:41.301Z,18.66
2018-12-20T01:20:09.432Z,18.66
2018-12-20T01:22:36.983Z,18.66
2018-12-20T01:25:05.639Z,18.67
2018-12-20T01:27:33.351Z,18.66
2018-12-20T01:30:00.879Z,18.66
2018-12-20T01:32:28.645Z,18.66
2018-12-20T01:34:56.297Z,18.66
2018-12-20T01:37:23.792Z,18.67
2018-12-20T01:39:51.405Z,18.67
2018-12-20T01:42:18.932Z,18.67
2018-12-20T01:44:53.337Z,18.66
2018-12-20T01:47:16.022Z,18.67
2018-12-20T01:49:43.557Z,18.67
2018-12-20T01:52:11.037Z,18.66
2018-12-20T01:54:38.659Z,18.67
2018-12-20T01:57:06.202Z,18.66
2018-12-20T01:59:33.774Z,18.67
2018-12-20T02:02:01.492Z,18.67
2018-12-20T02:04:29.201Z,18.66
2018-12-20T02:06:56.941Z,18.65
2018-12-20T02:09:24.592Z,18.66
2018-12-20T02:11:52.388Z,18.65
2018-12-20T02:14:19.967Z,18.65
2018-12-20T02:16:47.495Z,18.65
2018-12-20T02:19:15.039Z,18.64
2018-12-20T02:21:42.652Z,18.62
2018-12-20T02:24:10.446Z,18.66
2018-12-20T02:26:38.112Z,18.65
2018-12-20T02:29:05.845Z,18.65
2018-12-20T02:31:33.581Z,18.65
2018-12-20T02:34:01.368Z,18.65
2018-12-20T02:36:29.236Z,18.64
2018-12-20T02:38:57.009Z,18.64
2018-12-20T02:41:24.735Z,18.63
2018-12-20T02:43:52.468Z,18.64
2018-12-20T02:46:20.057Z,18.64
2018-12-20T02:48:47.968Z,18.63
2018-12-20T02:51:15.517Z,18.64
2018-12-20T02:53:43.060Z,18.66
2018-12-20T02:56:10.522Z,18.65
2018-12-20T02:58:38.169Z,18.67
2018-12-20T03:01:05.706Z,18.67
2018-12-20T03:03:33.191Z,18.65
2018-12-20T03:06:00.682Z,18.43
2018-12-20T03:08:28.169Z,18.65
2018-12-20T03:10:55.851Z,18.66
2018-12-20T03:13:23.379Z,18.67
2018-12-20T03:15:51.226Z,18.66
2018-12-20T03:18:18.807Z,18.64
2018-12-20T03:20:46.443Z,18.67
2018-12-20T03:23:14.402Z,18.66
2018-12-20T03:25:41.911Z,18.66
2018-12-20T03:28:09.690Z,18.65
2018-12-20T03:30:37.399Z,18.66
2018-12-20T03:33:05.491Z,18.65
2018-12-20T03:35:33.384Z,18.66
2018-12-20T03:38:00.963Z,18.66
2018-12-20T03:40:28.447Z,18.66
2018-12-20T03:42:55.927Z,18.66
2018-12-20T03:45:28.685Z,18.64
2018-12-20T03:47:53.104Z,18.65
2018-12-20T03:50:20.809Z,18.64
2018-12-20T03:52:48.497Z,18.65
2018-12-20T03:55:16.093Z,18.64
2018-12-20T03:57:43.793Z,18.60
2018-12-20T04:00:11.541Z,18.62
2018-12-20T04:02:39.124Z,18.63
2018-12-20T04:05:06.639Z,18.63
2018-12-20T04:07:34.191Z,18.63
2018-12-20T04:10:01.723Z,18.63
2018-12-20T04:12:30.336Z,18.65
2018-12-20T04:14:58.065Z,18.64
2018-12-20T04:17:25.901Z,18.63
2018-12-20T04:19:53.636Z,18.63
2018-12-20T04:22:21.428Z,18.65
2018-12-20T04:24:49.080Z,18.64
2018-12-20T04:27:16.815Z,18.64
2018-12-20T04:29:44.668Z,18.63
2018-12-20T04:32:12.281Z,18.65
2018-12-20T04:34:39.926Z,18.64
2018-12-20T04:37:07.623Z,18.65
2018-12-20T04:39:35.132Z,18.65
2018-12-20T04:42:02.578Z,18.67
2018-12-20T04:44:30.207Z,18.66
2018-12-20T04:46:59.595Z,18.65
2018-12-20T04:49:27.234Z,18.66
2018-12-20T04:51:54.705Z,18.63
2018-12-20T04:54:22.293Z,18.66
2018-12-20T04:56:49.946Z,18.66
2018-12-20T04:59:17.469Z,18.66
2018-12-20T05:01:45.241Z,18.64
2018-12-20T05:04:12.879Z,18.64
2018-12-20T05:06:40.612Z,18.66
2018-12-20T05:09:09.198Z,18.64
2018-12-20T05:11:36.656Z,18.64
2018-12-20T05:14:04.149Z,18.64
2018-12-20T05:16:31.721Z,18.64
2018-12-20T05:18:59.282Z,18.65
2018-12-20T05:21:27.070Z,18.64
2018-12-20T05:23:54.688Z,18.65
2018-12-20T05:26:22.550Z,18.64
2018-12-20T05:28:50.199Z,18.63
2018-12-20T05:31:17.669Z,18.63
2018-12-20T05:33:45.224Z,18.63
2018-12-20T05:36:12.757Z,18.64
2018-12-20T05:38:40.347Z,18.63
2018-12-20T05:41:07.834Z,18.65
2018-12-20T05:43:35.851Z,18.65
2018-12-20T05:46:04.622Z,18.65
2018-12-20T05:48:32.525Z,18.65
2018-12-20T05:51:00.251Z,18.66
2018-12-20T05:53:30.240Z,18.67
2018-12-20T05:55:58.001Z,18.68
2018-12-20T05:58:25.772Z,18.67
2018-12-20T06:00:53.417Z,18.67
2018-12-20T06:03:20.898Z,18.68
2018-12-20T06:05:48.964Z,18.67
2018-12-20T06:08:16.510Z,18.67
2018-12-20T06:10:43.988Z,18.67
2018-12-20T06:13:11.549Z,18.67
2018-12-20T06:15:39.254Z,18.67
2018-12-20T06:18:06.800Z,18.67
2018-12-20T06:20:34.370Z,18.67
2018-12-20T06:23:02.199Z,18.67
2018-12-20T06:25:29.732Z,18.67
2018-12-20T06:27:57.290Z,18.66
2018-12-20T06:30:24.751Z,18.66
2018-12-20T06:32:52.220Z,18.66
2018-12-20T06:35:19.798Z,18.66
2018-12-20T06:37:47.270Z,18.65
2018-12-20T06:40:16.441Z,18.66
2018-12-20T06:42:44.096Z,18.65
2018-12-20T06:45:11.571Z,18.66
2018-12-20T06:47:39.095Z,18.66
2018-12-20T06:50:07.571Z,18.65
2018-12-20T06:52:35.041Z,18.70
2018-12-20T06:55:02.528Z,18.73
2018-12-20T06:57:30.045Z,18.68
2018-12-20T06:59:57.534Z,18.56
2018-12-20T07:02:25.035Z,18.37
2018-12-20T07:04:52.568Z,18.19
2018-12-20T07:07:20.017Z,18.33
2018-12-20T07:09:47.731Z,18.34
2018-12-20T07:12:15.193Z,18.34
2018-12-20T07:14:42.759Z,18.35
2018-12-20T07:17:10.346Z,18.37
2018-12-20T07:19:37.815Z,18.37
2018-12-20T07:22:05.295Z,18.36
2018-12-20T07:24:32.756Z,18.36
2018-12-20T07:27:00.255Z,18.36
2018-12-20T07:29:27.799Z,18.35
2018-12-20T07:31:55.248Z,18.34
2018-12-20T07:34:22.714Z,18.34
2018-12-20T07:36:50.172Z,18.33
2018-12-20T07:39:17.671Z,18.30
2018-12-20T07:41:45.185Z,18.29
2018-12-20T07:44:12.659Z,18.29
2018-12-20T07:46:40.190Z,18.29
2018-12-20T07:49:07.632Z,18.27
2018-12-20T07:51:35.087Z,18.27
2018-12-20T07:54:02.583Z,18.26
2018-12-20T07:56:30.156Z,18.24
2018-12-20T07:58:57.632Z,18.22
2018-12-20T08:01:25.134Z,18.22
2018-12-20T08:03:52.574Z,18.21
2018-12-20T08:06:20.034Z,18.18
2018-12-20T08:08:47.503Z,18.18
2018-12-20T08:11:15.160Z,18.16
2018-12-20T08:13:42.691Z,18.16
2018-12-20T08:16:10.147Z,18.15
2018-12-20T08:18:37.640Z,18.13
2018-12-20T08:21:05.207Z,18.14
2018-12-20T08:23:32.744Z,18.14
2018-12-20T08:26:00.207Z,18.14
2018-12-20T08:28:27.664Z,18.16
2018-12-20T08:30:55.140Z,18.19
2018-12-20T08:33:23.264Z,18.22
2018-12-20T08:35:50.756Z,18.23
2018-12-20T08:38:18.240Z,18.24
2018-12-20T08:40:45.709Z,18.26
2018-12-20T08:43:13.161Z,18.26
2018-12-20T08:45:40.725Z,18.27
2018-12-20T08:48:08.172Z,18.26
2018-12-20T08:50:35.625Z,18.25
2018-12-20T08:53:03.201Z,18.26
2018-12-20T08:56:34.726Z,18.25
2018-12-20T08:59:04.148Z,18.24
2018-12-20T09:01:32.200Z,18.23
2018-12-20T09:04:00.313Z,18.23
2018-12-20T09:06:36.107Z,18.22
2018-12-20T09:09:04.905Z,18.20
2018-12-20T09:11:35.146Z,18.20
2018-12-20T09:14:03.443Z,18.19
2018-12-20T09:16:33.911Z,18.17
2018-12-20T09:19:02.947Z,18.16
2018-12-20T09:21:33.524Z,18.13
2018-12-20T09:24:03.328Z,18.15
2018-12-20T09:26:31.449Z,18.14
2018-12-20T09:29:00.309Z,18.15
2018-12-20T09:31:30.571Z,18.13
2018-12-20T09:34:03.290Z,18.12
2018-12-20T09:36:35.438Z,18.12
2018-12-20T09:39:07.381Z,18.10
2018-12-20T09:41:38.195Z,18.09
2018-12-20T09:44:10.249Z,18.09
2018-12-20T09:46:40.245Z,18.09
2018-12-20T09:49:11.251Z,18.08
2018-12-20T09:51:45.633Z,18.08
2018-12-20T09:54:15.926Z,18.08
2018-12-20T09:56:54.830Z,18.08
2018-12-20T09:59:25.270Z,17.94
2018-12-20T10:01:57.064Z,18.10
2018-12-20T10:04:29.921Z,18.12
2018-12-20T10:06:59.608Z,18.12
2018-12-20T10:09:31.519Z,18.11
2018-12-20T10:12:04.020Z,18.12
2018-12-20T10:14:35.196Z,18.10
2018-12-20T10:17:19.870Z,18.12
2018-12-20T10:19:52.798Z,18.14
2018-12-20T10:22:23.310Z,18.18
2018-12-20T10:24:54.763Z,18.20
2018-12-20T10:27:31.397Z,18.23
2018-12-20T10:29:57.721Z,18.24
2018-12-20T10:32:30.531Z,18.26
2018-12-20T10:35:06.468Z,18.24
2018-12-20T10:37:39.302Z,18.25
2018-12-20T10:40:08.634Z,18.24
2018-12-20T10:42:38.060Z,18.26
2018-12-20T10:45:07.879Z,18.24
2018-12-20T10:47:37.534Z,18.23
2018-12-20T10:50:07.025Z,18.23
2018-12-20T10:52:39.988Z,18.23
2018-12-20T10:55:08.254Z,18.22
2018-12-20T10:57:35.703Z,18.21
2018-12-20T11:00:03.218Z,18.21
2018-12-20T11:02:36.126Z,18.19
2018-12-20T11:05:07.870Z,18.18
2018-12-20T11:07:40.863Z,18.18
2018-12-20T11:10:14.114Z,18.17
2018-12-20T11:12:46.996Z,18.15
2018-12-20T11:15:14.454Z,18.16
2018-12-20T11:17:41.971Z,18.14
2018-12-20T11:20:09.530Z,18.14
2018-12-20T11:22:37.092Z,18.16
2018-12-20T11:25:04.672Z,18.14
2018-12-20T11:27:32.123Z,18.14
2018-12-20T11:29:59.603Z,18.14
2018-12-20T11:32:27.143Z,18.13
2018-12-20T11:34:54.624Z,18.16
2018-12-20T11:37:22.074Z,18.14
2018-12-20T11:39:49.523Z,18.13
2018-12-20T11:42:17.110Z,18.14
2018-12-20T11:44:44.557Z,18.14
2018-12-20T11:47:17.470Z,18.15
2018-12-20T11:49:44.923Z,18.17
2018-12-20T11:52:12.364Z,18.18
2018-12-20T11:54:39.887Z,18.20
2018-12-20T11:57:07.321Z,18.22
2018-12-20T11:59:34.782Z,18.23
2018-12-20T12:02:02.263Z,18.23
2018-12-20T12:04:29.739Z,18.23
2018-12-20T12:06:57.309Z,18.23
2018-12-20T12:09:24.831Z,18.20
2018-12-20T12:11:52.284Z,18.22
2018-12-20T12:14:19.827Z,18.23
2018-12-20T12:16:47.399Z,18.22
2018-12-20T12:19:15.003Z,18.21
2018-12-20T12:21:42.466Z,18.20
2018-12-20T12:24:09.927Z,18.20
2018-12-20T12:26:37.517Z,18.21
2018-12-20T12:29:05.116Z,18.19
2018-12-20T12:31:32.599Z,18.19
2018-12-20T12:34:00.138Z,18.19
2018-12-20T12:36:27.650Z,18.20
2018-12-20T12:38:55.151Z,18.22
2018-12-20T12:41:22.632Z,18.25
2018-12-20T12:43:51.024Z,18.08
2018-12-20T12:46:18.823Z,18.25
2018-12-20T12:48:46.265Z,18.31
2018-12-20T12:51:13.791Z,18.53
2018-12-20T12:53:41.259Z,18.53
2018-12-20T12:56:08.780Z,18.53
2018-12-20T12:58:36.312Z,18.54
2018-12-20T13:01:03.865Z,18.53
2018-12-20T13:03:31.307Z,18.54
2018-12-20T13:05:58.914Z,18.55
2018-12-20T13:08:26.362Z,18.55
2018-12-20T13:10:53.818Z,18.56
2018-12-20T13:13:21.373Z,18.56
2018-12-20T13:15:50.882Z,18.56
2018-12-20T13:18:18.369Z,18.58
2018-12-20T13:20:45.822Z,18.58
2018-12-20T13:23:13.383Z,18.58
2018-12-20T13:25:40.875Z,18.58
2018-12-20T13:28:08.444Z,18.58
2018-12-20T13:30:36.100Z,18.59
2018-12-20T13:33:03.583Z,18.59
2018-12-20T13:35:31.038Z,18.60
2018-12-20T13:37:58.505Z,18.62
2018-12-20T13:40:25.936Z,18.61
2018-12-20T13:42:53.418Z,18.62
2018-12-20T13:45:20.870Z,18.61
2018-12-20T13:47:48.319Z,18.62
2018-12-20T13:50:15.847Z,18.62
2018-12-20T13:52:43.407Z,18.62
2018-12-20T13:55:10.892Z,18.62
2018-12-20T13:57:38.355Z,18.60
2018-12-20T14:00:06.860Z,18.60
2018-12-20T14:02:34.320Z,18.59
2018-12-20T14:05:01.819Z,18.59
2018-12-20T14:07:29.318Z,18.60
2018-12-20T14:09:56.759Z,18.61
2018-12-20T14:12:24.222Z,18.61
2018-12-20T14:14:51.671Z,18.61
2018-12-20T14:17:19.238Z,18.61
2018-12-20T14:19:46.729Z,18.61
2018-12-20T14:22:14.187Z,18.65
2018-12-20T14:24:41.708Z,18.67
2018-12-20T14:27:09.209Z,18.69
2018-12-20T14:29:36.666Z,18.67
2018-12-20T14:32:04.203Z,18.65
2018-12-20T14:34:31.684Z,18.64
2018-12-20T14:37:02.248Z,18.67
2018-12-20T14:39:29.729Z,18.67
2018-12-20T14:41:57.209Z,18.68
2018-12-20T14:44:24.663Z,18.70
2018-12-20T14:46:52.117Z,18.70
2018-12-20T14:49:19.656Z,18.74
2018-12-20T14:51:48.136Z,18.72
2018-12-20T14:54:16.695Z,18.73
2018-12-20T14:56:44.173Z,18.74
2018-12-20T14:59:11.968Z,18.73
2018-12-20T15:01:39.431Z,18.73
2018-12-20T15:04:06.877Z,18.74
2018-12-20T15:06:34.331Z,18.71
2018-12-20T15:09:01.921Z,18.70
2018-12-20T15:11:29.427Z,18.73
2018-12-20T15:13:56.913Z,18.73
2018-12-20T15:16:24.424Z,18.72
2018-12-20T15:18:52.008Z,18.72
2018-12-20T15:21:19.452Z,18.70
2018-12-20T15:23:46.934Z,18.71
2018-12-20T15:26:14.416Z,18.71
2018-12-20T15:28:42.688Z,18.70
2018-12-20T15:31:10.143Z,18.70
2018-12-20T15:33:37.616Z,18.69
2018-12-20T15:36:05.077Z,18.70
2018-12-20T15:38:32.610Z,18.71
2018-12-20T15:41:01.990Z,18.70
2018-12-20T15:43:29.550Z,18.68
2018-12-20T15:45:57.020Z,18.69
2018-12-20T15:48:24.465Z,18.76
2018-12-20T15:50:52.045Z,18.79
2018-12-20T15:53:19.552Z,18.81
2018-12-20T15:55:47.015Z,18.81
2018-12-20T15:58:14.607Z,18.82
2018-12-20T16:00:42.104Z,18.84
2018-12-20T16:03:09.595Z,18.84
2018-12-20T16:05:37.091Z,18.83
2018-12-20T16:08:06.633Z,18.83
2018-12-20T16:10:34.140Z,18.86
2018-12-20T16:13:01.637Z,18.83
2018-12-20T16:15:29.197Z,18.88
2018-12-20T16:17:56.679Z,18.89
2018-12-20T16:20:24.146Z,18.92
2018-12-20T16:22:51.596Z,18.93
2018-12-20T16:25:19.061Z,18.95
2018-12-20T16:27:46.544Z,18.95
2018-12-20T16:30:14.008Z,18.96
2018-12-20T16:32:41.458Z,18.97
2018-12-20T16:35:08.962Z,18.98
2018-12-20T16:37:36.408Z,19.00
2018-12-20T16:40:04.601Z,19.01
2018-12-20T16:42:32.179Z,19.01
2018-12-20T16:44:59.647Z,19.02
2018-12-20T16:47:27.112Z,19.03
2018-12-20T16:49:54.655Z,19.04
2018-12-20T16:52:22.130Z,19.05
2018-12-20T16:54:49.582Z,19.05
2018-12-20T16:57:17.048Z,19.03
2018-12-20T16:59:44.605Z,19.05
2018-12-20T17:02:12.100Z,19.06
2018-12-20T17:04:39.580Z,19.05
2018-12-20T17:07:07.176Z,19.04
2018-12-20T17:09:34.805Z,19.02
2018-12-20T17:12:02.291Z,18.99
2018-12-20T17:14:29.841Z,18.99
2018-12-20T17:16:57.373Z,18.99
2018-12-20T17:19:24.829Z,18.97
2018-12-20T17:21:52.268Z,18.95
2018-12-20T17:24:19.730Z,18.96
2018-12-20T17:26:47.270Z,18.94
2018-12-20T17:29:14.761Z,18.93
2018-12-20T17:31:42.291Z,18.92
2018-12-20T17:34:09.797Z,18.93
2018-12-20T17:36:37.264Z,18.92
2018-12-20T17:39:06.190Z,18.92
2018-12-20T17:41:33.675Z,18.92
2018-12-20T17:44:01.139Z,18.92
2018-12-20T17:46:28.724Z,18.91
2018-12-20T17:48:56.312Z,18.93
2018-12-20T17:51:23.817Z,18.92
2018-12-20T17:53:51.280Z,18.91
2018-12-20T17:56:18.804Z,18.91
2018-12-20T17:58:46.421Z,18.93
2018-12-20T18:01:13.896Z,18.92
2018-12-20T18:03:41.413Z,18.91
2018-12-20T18:06:08.858Z,18.92
2018-12-20T18:08:36.325Z,18.96
2018-12-20T18:11:03.785Z,18.96
2018-12-20T18:13:31.229Z,18.94
2018-12-20T18:15:58.732Z,18.94
2018-12-20T18:18:26.220Z,18.93
2018-12-20T18:20:54.083Z,18.94
2018-12-20T18:23:21.565Z,18.94
2018-12-20T18:25:49.016Z,18.92
2018-12-20T18:28:16.449Z,18.92
2018-12-20T18:30:44.224Z,18.93
2018-12-20T18:33:11.926Z,18.94
2018-12-20T18:35:39.465Z,18.94
2018-12-20T18:38:06.933Z,18.94
2018-12-20T18:40:34.402Z,18.93
2018-12-20T18:43:01.928Z,18.92
2018-12-20T18:45:29.413Z,18.92
2018-12-20T18:47:56.889Z,18.92
2018-12-20T18:50:24.333Z,18.92
2018-12-20T18:52:51.834Z,18.86
2018-12-20T18:55:19.319Z,18.90
2018-12-20T18:57:46.772Z,18.89
2018-12-20T19:00:14.260Z,18.89
2018-12-20T19:02:41.753Z,18.89
2018-12-20T19:05:09.340Z,18.89
2018-12-20T19:07:36.899Z,18.92
2018-12-20T19:10:04.875Z,18.94
2018-12-20T19:12:42.715Z,18.92
2018-12-20T19:15:10.172Z,18.92
2018-12-20T19:17:37.657Z,18.92
2018-12-20T19:20:06.108Z,18.92
2018-12-20T19:22:33.811Z,18.94
2018-12-20T19:25:01.364Z,18.93
2018-12-20T19:27:28.947Z,18.93
2018-12-20T19:29:56.421Z,18.92
2018-12-20T19:32:23.975Z,18.91
2018-12-20T19:34:51.525Z,18.98
2018-12-20T19:37:19.086Z,19.07
2018-12-20T19:39:50.122Z,19.00
2018-12-20T19:42:17.946Z,18.99
2018-12-20T19:44:45.540Z,18.96
2018-12-20T19:47:15.016Z,18.95
2018-12-20T19:49:42.647Z,18.92
2018-12-20T19:52:10.168Z,18.91
2018-12-20T19:54:38.790Z,18.93
2018-12-20T19:57:06.266Z,18.91
2018-12-20T19:59:38.638Z,18.91
2018-12-20T20:02:05.312Z,18.93
2018-12-20T20:04:32.909Z,18.92
2018-12-20T20:07:00.368Z,18.92
2018-12-20T20:09:27.844Z,18.91
2018-12-20T20:11:57.411Z,18.90
2018-12-20T20:14:24.970Z,18.89
2018-12-20T20:16:52.463Z,18.89
2018-12-20T20:19:20.026Z,18.88
2018-12-20T20:21:47.567Z,18.89
2018-12-20T20:26:59.630Z,18.93
2018-12-20T20:29:27.365Z,18.94
2018-12-20T20:31:55.011Z,18.95
2018-12-20T20:34:22.469Z,19.02
2018-12-20T20:36:50.118Z,19.58
2018-12-20T20:39:17.674Z,19.86
2018-12-20T20:41:45.273Z,19.91
2018-12-20T20:44:12.755Z,19.53
2018-12-20T20:46:40.232Z,19.26
2018-12-20T20:49:07.738Z,19.16
2018-12-20T20:51:35.214Z,19.08
2018-12-20T20:54:02.735Z,19.01
2018-12-20T20:56:30.247Z,18.99
2018-12-20T20:58:57.732Z,19.01
2018-12-20T21:01:25.210Z,18.99
2018-12-20T21:03:52.705Z,18.95
2018-12-20T21:06:20.170Z,18.97
2018-12-20T21:08:47.611Z,18.99
2018-12-20T21:11:15.241Z,18.96
2018-12-20T21:13:42.901Z,18.97
2018-12-20T21:16:10.339Z,18.96
2018-12-20T21:18:37.833Z,18.97
2018-12-20T21:21:05.283Z,18.98
2018-12-20T21:23:32.738Z,18.97
2018-12-20T21:26:00.235Z,18.95
2018-12-20T21:28:27.884Z,18.91
2018-12-20T21:30:55.327Z,18.89
2018-12-20T21:33:22.810Z,18.89
2018-12-20T21:35:50.271Z,18.89
2018-12-20T21:38:17.918Z,18.90
2018-12-20T21:40:45.541Z,18.87
2018-12-20T21:43:13.008Z,18.86
2018-12-20T21:45:40.440Z,18.88
2018-12-20T21:48:07.889Z,18.88
2018-12-20T21:50:38.887Z,18.86
2018-12-20T21:53:04.905Z,18.85
2018-12-20T21:55:32.417Z,18.87
2018-12-20T21:57:59.996Z,18.91
2018-12-20T22:00:27.480Z,18.88
2018-12-20T22:02:54.948Z,18.69
2018-12-20T22:05:22.492Z,18.63
2018-12-20T22:07:49.980Z,18.59
2018-12-20T22:10:17.465Z,18.58
2018-12-20T22:12:45.006Z,18.57
2018-12-20T22:15:12.498Z,18.58
2018-12-20T22:17:40.761Z,18.55
2018-12-20T22:20:08.205Z,18.56
2018-12-20T22:22:35.719Z,18.57
2018-12-20T22:25:03.283Z,18.56
2018-12-20T22:27:30.831Z,18.56
2018-12-20T22:29:58.267Z,18.57
2018-12-20T22:32:25.733Z,18.57
2018-12-20T22:34:53.360Z,18.56
2018-12-20T22:37:21.005Z,18.56
2018-12-20T22:39:49.093Z,18.55
2018-12-20T22:42:16.675Z,18.56
2018-12-20T22:44:44.268Z,18.56
2018-12-20T22:47:11.835Z,18.58
2018-12-20T22:49:39.383Z,18.59
2018-12-20T22:52:06.858Z,18.59
2018-12-20T22:54:34.336Z,18.60
2018-12-20T22:57:01.820Z,18.60
2018-12-20T22:59:29.348Z,18.59
2018-12-20T23:01:57.000Z,18.60
2018-12-20T23:04:24.505Z,18.59
2018-12-20T23:06:52.020Z,18.57
2018-12-20T23:09:19.516Z,18.57
2018-12-20T23:11:47.009Z,18.57
2018-12-20T23:14:14.503Z,18.56
2018-12-20T23:16:41.964Z,18.55
2018-12-20T23:19:09.447Z,18.55
2018-12-20T23:21:37.091Z,18.54
2018-12-20T23:24:04.689Z,18.54
2018-12-20T23:26:32.136Z,18.53
2018-12-20T23:28:59.630Z,18.54
2018-12-20T23:31:27.075Z,18.55
2018-12-20T23:33:54.544Z,18.55
2018-12-20T23:36:22.037Z,18.56
2018-12-20T23:38:49.542Z,18.57
2018-12-20T23:41:17.375Z,18.56
2018-12-20T23:43:44.913Z,18.56
2018-12-20T23:46:12.409Z,18.56
2018-12-20T23:48:39.902Z,18.55
2018-12-20T23:51:13.434Z,18.56
2018-12-20T23:53:36.936Z,18.46
2018-12-20T23:56:04.425Z,18.57
2018-12-20T23:58:32.015Z,18.56
